Time;durP1;ratioP1;P1;durP2;ratioP2;P2;SDS_P1;SDS_P2;PMS_P1;PMS_P2;Temp;Humidity;BMP_temperature;BMP_pressure;BME280_temperature;BME280_humidity;BME280_pressure;Samples;Min_cycle;Max_cycle;Signal;HPM_P1;HPM_P2
2023/12/04 00:00:07;;;;;;;33.20;14.70;;;;;;;-4.15;100.00;99673.45;273355;1266;23098;-89
2023/12/04 00:06:34;;;;;;;36.70;16.20;;;;;;;-4.13;100.00;99668.53;273334;1266;22414;-88
2023/12/04 00:12:36;;;;;;;34.50;14.70;;;;;;;-4.19;100.00;99672.00;273299;1266;22288;-88
2023/12/04 00:18:38;;;;;;;35.00;16.10;;;;;;;-4.26;100.00;99680.10;272879;1266;23017;-89
2023/12/04 00:24:40;;;;;;;43.10;19.00;;;;;;;-4.26;100.00;99686.99;272997;1266;22598;-87
2023/12/04 00:30:44;;;;;;;44.20;18.70;;;;;;;-4.24;100.00;99690.38;270236;1266;22602;-88
2023/12/04 00:36:47;;;;;;;40.70;18.20;;;;;;;-4.13;100.00;99691.59;272026;1267;22491;-89
2023/12/04 00:42:49;;;;;;;40.30;17.70;;;;;;;-4.05;100.00;99692.79;273289;1266;23403;-89
2023/12/04 00:48:52;;;;;;;43.30;18.80;;;;;;;-3.96;100.00;99689.06;273064;1266;22411;-87
2023/12/04 00:54:54;;;;;;;38.10;19.50;;;;;;;-3.87;100.00;99687.98;273056;1266;22475;-88
2023/12/04 01:00:57;;;;;;;47.20;19.90;;;;;;;-3.96;100.00;99688.73;273209;1267;24434;-88
2023/12/04 01:06:59;;;;;;;37.30;18.10;;;;;;;-4.13;100.00;99690.52;273205;1266;22390;-88
2023/12/04 01:13:01;;;;;;;37.00;16.60;;;;;;;-4.20;100.00;99694.29;273055;1267;22248;-88
2023/12/04 01:19:03;;;;;;;39.60;17.50;;;;;;;-4.16;100.00;99698.52;273219;1266;24482;-87
2023/12/04 01:25:06;;;;;;;45.10;18.80;;;;;;;-4.16;100.00;99694.77;273217;1266;22336;-87
2023/12/04 01:31:08;;;;;;;35.40;17.50;;;;;;;-4.22;100.00;99694.18;273174;1264;22452;-87
2023/12/04 01:37:11;;;;;;;37.90;17.60;;;;;;;-4.29;100.00;99696.08;273165;1266;22574;-88
2023/12/04 01:43:14;;;;;;;38.10;17.20;;;;;;;-4.39;100.00;99692.94;273190;1266;22427;-87
2023/12/04 01:49:16;;;;;;;33.50;15.40;;;;;;;-4.50;100.00;99689.30;273271;1266;23553;-87
2023/12/04 01:55:19;;;;;;;35.90;16.40;;;;;;;-4.61;100.00;99689.67;273134;1266;22395;-87
2023/12/04 02:01:21;;;;;;;30.40;12.70;;;;;;;-4.76;100.00;99683.08;273274;1266;22481;-86
2023/12/04 02:07:23;;;;;;;26.40;13.80;;;;;;;-4.90;100.00;99674.02;273266;1266;23418;-86
2023/12/04 02:13:25;;;;;;;24.00;10.70;;;;;;;-5.01;100.00;99671.39;272753;1263;22204;-87
2023/12/04 02:19:28;;;;;;;23.30;11.90;;;;;;;-5.08;100.00;99670.05;272747;1267;22644;-87
2023/12/04 02:25:30;;;;;;;25.40;10.40;;;;;;;-5.15;100.00;99671.25;271964;1262;22204;-86
2023/12/04 02:31:43;;;;;;;21.60;10.30;;;;;;;-5.21;100.00;99666.82;273173;1257;98690;-91
2023/12/04 02:37:47;;;;;;;24.70;10.50;;;;;;;-5.30;100.00;99667.55;271721;1267;25066;-90
2023/12/04 02:43:49;;;;;;;26.40;12.10;;;;;;;-5.39;100.00;99669.10;271487;1266;22313;-90
2023/12/04 02:49:51;;;;;;;29.60;12.60;;;;;;;-5.44;100.00;99673.11;271945;1266;22478;-90
2023/12/04 02:55:53;;;;;;;26.90;13.00;;;;;;;-5.41;100.00;99679.42;273336;1266;22447;-90
2023/12/04 03:01:56;;;;;;;30.00;15.10;;;;;;;-5.29;100.00;99680.92;273426;1267;22362;-91
2023/12/04 03:07:58;;;;;;;36.00;16.20;;;;;;;-5.21;100.00;99691.11;272829;1259;23831;-90
2023/12/04 03:14:01;;;;;;;30.50;15.00;;;;;;;-5.16;100.00;99689.93;271412;1266;24222;-90
2023/12/04 03:20:04;;;;;;;35.90;14.20;;;;;;;-5.10;100.00;99692.10;271296;1266;23309;-90
2023/12/04 03:26:07;;;;;;;29.90;14.30;;;;;;;-5.05;100.00;99697.91;272242;1266;22384;-90
2023/12/04 03:32:09;;;;;;;31.90;14.60;;;;;;;-5.05;100.00;99701.91;273450;1266;22205;-90
2023/12/04 03:38:11;;;;;;;30.40;15.10;;;;;;;-5.03;100.00;99700.41;273384;1267;22408;-90
2023/12/04 03:44:13;;;;;;;30.90;15.00;;;;;;;-5.02;100.00;99704.81;272678;1266;23431;-89
2023/12/04 03:50:15;;;;;;;28.60;14.60;;;;;;;-4.97;100.00;99706.08;270567;1266;22546;-90
2023/12/04 03:56:17;;;;;;;34.20;17.00;;;;;;;-4.96;100.00;99705.65;271669;1266;22566;-90
2023/12/04 04:02:20;;;;;;;35.40;15.50;;;;;;;-4.96;100.00;99712.45;272260;1267;22272;-91
2023/12/04 04:08:22;;;;;;;33.40;16.10;;;;;;;-4.96;100.00;99717.41;273386;1266;22952;-91
2023/12/04 04:14:24;;;;;;;31.50;16.90;;;;;;;-4.95;100.00;99720.89;273332;1267;23221;-91
2023/12/04 04:20:26;;;;;;;36.30;15.20;;;;;;;-4.92;100.00;99719.24;273276;1266;22195;-90
2023/12/04 04:26:28;;;;;;;29.40;14.10;;;;;;;-4.91;100.00;99721.98;273157;1266;309004;-91
2023/12/04 04:32:30;;;;;;;35.50;17.00;;;;;;;-4.91;100.00;99726.46;273437;1266;22434;-90
2023/12/04 04:38:32;;;;;;;31.80;15.00;;;;;;;-4.87;100.00;99725.54;273507;1266;22561;-92
2023/12/04 04:44:34;;;;;;;32.60;15.40;;;;;;;-4.83;100.00;99726.14;273296;1267;22997;-89
2023/12/04 04:50:36;;;;;;;36.20;16.70;;;;;;;-4.83;100.00;99728.77;273261;1267;23603;-89
2023/12/04 04:56:39;;;;;;;34.50;15.80;;;;;;;-4.84;100.00;99733.99;273400;1266;22442;-89
2023/12/04 05:02:41;;;;;;;29.80;16.20;;;;;;;-4.84;100.00;99735.95;273434;1256;22781;-90
2023/12/04 05:08:43;;;;;;;38.00;17.10;;;;;;;-4.83;100.00;99740.99;273499;1262;22553;-89
2023/12/04 05:14:45;;;;;;;36.00;17.90;;;;;;;-4.79;100.00;99745.40;273517;1267;22731;-89
2023/12/04 05:20:47;;;;;;;40.50;18.50;;;;;;;-4.77;100.00;99736.98;273395;1264;22341;-89
2023/12/04 05:26:49;;;;;;;37.90;20.10;;;;;;;-4.75;100.00;99733.30;272238;1266;22537;-89
2023/12/04 05:32:51;;;;;;;42.70;18.60;;;;;;;-4.75;100.00;99731.98;272506;1266;22459;-89
2023/12/04 05:38:53;;;;;;;40.30;19.30;;;;;;;-4.74;100.00;99731.50;271270;1266;22299;-89
2023/12/04 05:44:57;;;;;;;34.10;16.20;;;;;;;-4.72;100.00;99727.71;272735;1265;22419;-90
2023/12/04 05:50:59;;;;;;;40.50;19.70;;;;;;;-4.69;100.00;99729.38;273276;1267;22394;-89
2023/12/04 05:57:01;;;;;;;37.70;17.30;;;;;;;-4.67;100.00;99728.12;271177;1266;22546;-90
2023/12/04 06:03:03;;;;;;;43.00;19.60;;;;;;;-4.65;100.00;99731.38;270623;1266;22609;-89
2023/12/04 06:09:06;;;;;;;42.30;21.30;;;;;;;-4.65;100.00;99736.45;270961;1266;22527;-89
2023/12/04 06:15:09;;;;;;;50.40;24.60;;;;;;;-4.65;100.00;99739.98;271796;1267;22367;-90
2023/12/04 06:21:12;;;;;;;41.50;21.10;;;;;;;-4.64;100.00;99737.96;272585;1266;23025;-89
2023/12/04 06:27:20;;;;;;;44.00;20.10;;;;;;;-4.62;100.00;99735.26;273433;1257;23696;-90
2023/12/04 06:33:22;;;;;;;34.10;19.10;;;;;;;-4.56;100.00;99734.64;273454;1266;22259;-90
2023/12/04 06:39:25;;;;;;;32.20;16.80;;;;;;;-4.50;100.00;99728.27;273116;1266;22429;-90
2023/12/04 06:45:27;;;;;;;35.10;16.50;;;;;;;-4.48;100.00;99730.15;273227;1267;23027;-90
2023/12/04 06:51:30;;;;;;;32.60;15.70;;;;;;;-4.42;100.00;99733.77;273383;1266;22224;-90
2023/12/04 06:57:32;;;;;;;37.30;18.40;;;;;;;-4.40;100.00;99733.98;273477;1266;22523;-90
2023/12/04 07:03:38;;;;;;;63.80;27.60;;;;;;;-4.40;100.00;99735.69;273140;1266;24377;-90
2023/12/04 07:09:40;;;;;;;51.20;23.60;;;;;;;-4.36;100.00;99744.20;273473;1265;22161;-90
2023/12/04 07:15:42;;;;;;;44.60;22.30;;;;;;;-4.36;100.00;99746.77;273445;1265;23102;-90
2023/12/04 07:21:44;;;;;;;53.50;26.00;;;;;;;-4.33;100.00;99740.00;273409;1266;22492;-90
2023/12/04 07:27:46;;;;;;;50.30;25.00;;;;;;;-4.26;100.00;99735.59;273498;1266;23207;-90
2023/12/04 07:33:48;;;;;;;59.90;27.80;;;;;;;-4.19;100.00;99735.57;273557;1266;22314;-91
2023/12/04 07:39:50;;;;;;;50.50;25.60;;;;;;;-4.11;100.00;99730.00;273482;1267;23041;-90
2023/12/04 07:45:52;;;;;;;55.10;26.50;;;;;;;-3.99;100.00;99732.60;273436;1266;22195;-90
2023/12/04 07:51:55;;;;;;;46.70;23.40;;;;;;;-3.81;100.00;99736.89;273301;1253;23157;-90
2023/12/04 07:57:57;;;;;;;71.70;33.00;;;;;;;-3.58;100.00;99734.20;273397;1266;22404;-90
2023/12/04 08:03:59;;;;;;;59.30;28.10;;;;;;;-3.29;100.00;99747.16;273392;1266;22424;-91
2023/12/04 08:10:02;;;;;;;62.40;28.60;;;;;;;-2.95;100.00;99743.92;273250;1267;22529;-90
2023/12/04 08:16:04;;;;;;;57.40;26.40;;;;;;;-2.67;100.00;99746.43;272387;1266;22541;-89
2023/12/04 08:22:07;;;;;;;62.50;27.70;;;;;;;-2.31;100.00;99740.55;271007;1266;23653;-89
2023/12/04 08:28:09;;;;;;;55.50;28.40;;;;;;;-1.92;100.00;99739.27;271847;1266;22261;-89
2023/12/04 08:34:11;;;;;;;59.50;26.00;;;;;;;-1.43;100.00;99737.72;272217;1267;22495;-90
2023/12/04 08:40:14;;;;;;;43.80;21.80;;;;;;;-0.87;100.00;99739.90;273316;1266;22453;-90
2023/12/04 08:46:16;;;;;;;44.70;21.30;;;;;;;-0.48;100.00;99735.88;272210;1266;23204;-91
2023/12/04 08:52:26;;;;;;;26.40;12.00;;;;;;;0.28;100.00;99743.27;273385;1267;23516;-91
2023/12/04 08:58:28;;;;;;;26.60;14.40;;;;;;;0.93;100.00;99745.27;273341;1265;22231;-91
2023/12/04 09:04:31;;;;;;;25.40;11.40;;;;;;;1.41;100.00;99739.71;273312;1267;22410;-90
2023/12/04 09:10:34;;;;;;;18.60;11.80;;;;;;;1.75;100.00;99746.10;273399;1267;22194;-91
2023/12/04 09:16:37;;;;;;;16.60;10.60;;;;;;;1.75;100.00;99739.30;273459;1266;22412;-91
2023/12/04 09:22:45;;;;;;;20.60;11.60;;;;;;;1.87;100.00;99737.61;271063;1266;25320;-91
2023/12/04 09:29:02;;;;;;;14.60;9.20;;;;;;;2.16;100.00;99729.46;271395;1266;23857;-90
2023/12/04 09:35:28;;;;;;;21.00;12.70;;;;;;;2.22;100.00;99724.84;272494;1266;22556;-92
2023/12/04 09:41:34;;;;;;;16.10;9.90;;;;;;;2.47;100.00;99717.59;272139;1266;22643;-92
2023/12/04 09:47:36;;;;;;;18.00;9.90;;;;;;;3.06;100.00;99713.43;270208;1266;22577;-91
2023/12/04 09:53:40;;;;;;;17.30;9.90;;;;;;;3.38;99.31;99692.52;271875;1266;25154;-91
2023/12/04 09:59:44;;;;;;;13.20;7.70;;;;;;;3.20;98.67;99687.03;271675;1266;23615;-90
2023/12/04 10:05:51;;;;;;;14.60;8.80;;;;;;;3.00;97.97;99681.94;273255;1258;22554;-91
2023/12/04 10:11:56;;;;;;;18.90;10.00;;;;;;;3.03;96.87;99671.37;270505;1265;22571;-90
2023/12/04 10:17:58;;;;;;;15.80;8.50;;;;;;;3.01;95.70;99663.80;270261;1267;22645;-90
2023/12/04 10:24:09;;;;;;;19.40;11.30;;;;;;;2.70;92.92;99659.88;270690;1266;22376;-92
2023/12/04 10:30:42;;;;;;;15.30;10.50;;;;;;;2.45;92.89;99660.68;272447;1267;22543;-91
2023/12/04 10:36:58;;;;;;;17.40;10.20;;;;;;;2.53;92.71;99657.73;272068;1267;22350;-91
2023/12/04 10:43:09;;;;;;;23.30;12.20;;;;;;;2.22;91.71;99653.80;272992;1266;22425;-91
2023/12/04 10:49:12;;;;;;;19.10;11.00;;;;;;;1.92;90.95;99651.65;271411;1267;22887;-90
2023/12/04 10:55:17;;;;;;;18.90;10.10;;;;;;;1.55;89.89;99636.92;271432;1267;24190;-92
2023/12/04 11:01:24;;;;;;;17.00;10.10;;;;;;;1.32;89.70;99631.00;271221;1266;22443;-90
2023/12/04 11:07:27;;;;;;;20.40;10.10;;;;;;;1.13;89.09;99630.88;271511;1266;22314;-91
2023/12/04 11:13:30;;;;;;;16.90;9.30;;;;;;;1.01;88.76;99616.06;273245;1266;22200;-90
2023/12/04 11:20:01;;;;;;;20.60;10.30;;;;;;;0.80;88.07;99605.60;273297;1267;22337;-89
2023/12/04 11:26:05;;;;;;;21.40;10.00;;;;;;;0.75;88.38;99607.30;273269;1266;23587;-91
2023/12/04 11:32:07;;;;;;;18.90;10.20;;;;;;;0.64;87.75;99599.79;272625;1267;22545;-90
2023/12/04 11:38:16;;;;;;;17.60;9.80;;;;;;;0.38;87.40;99592.02;273304;1267;22914;-91
2023/12/04 11:44:18;;;;;;;18.70;9.30;;;;;;;0.05;87.04;99598.84;273326;1266;23542;-90
2023/12/04 11:50:21;;;;;;;14.90;8.40;;;;;;;-0.18;86.86;99593.90;273045;1268;22435;-91
2023/12/04 11:56:23;;;;;;;16.70;8.70;;;;;;;-0.33;86.02;99579.73;273181;1266;22443;-90
2023/12/04 12:02:29;;;;;;;13.50;7.60;;;;;;;-0.45;85.95;99571.06;273214;1266;23926;-90
2023/12/04 12:08:30;;;;;;;14.90;7.70;;;;;;;-0.51;85.52;99566.03;271939;1267;22191;-90
2023/12/04 12:14:33;;;;;;;14.20;8.50;;;;;;;-0.56;85.58;99562.17;273212;1267;22173;-90
2023/12/04 12:20:39;;;;;;;21.10;10.00;;;;;;;-0.55;85.56;99557.55;273040;1267;22909;-90
2023/12/04 12:26:41;;;;;;;20.50;11.10;;;;;;;-0.53;85.67;99551.98;272879;1266;22202;-89
2023/12/04 12:32:43;;;;;;;22.40;11.40;;;;;;;-0.53;85.59;99545.45;271938;1267;22551;-89
2023/12/04 12:38:49;;;;;;;32.00;16.20;;;;;;;-0.56;85.54;99544.54;271801;1266;23365;-89
2023/12/04 12:44:52;;;;;;;;;;;;;;;-0.62;85.36;99529.83;271906;1266;22521;-88
2023/12/04 12:50:55;;;;;;;25.10;11.50;;;;;;;-0.71;84.95;99521.61;272036;1266;24816;-89
2023/12/04 12:56:57;;;;;;;28.70;14.00;;;;;;;-0.83;84.78;99510.10;271474;1266;23204;-88
2023/12/04 13:02:59;;;;;;;25.20;12.80;;;;;;;-0.92;84.49;99497.85;272628;1267;22458;-88
2023/12/04 13:09:02;;;;;;;27.60;13.50;;;;;;;-1.06;84.25;99499.48;272742;1266;22989;-88
2023/12/04 13:15:07;;;;;;;27.70;14.70;;;;;;;-1.10;84.55;99498.03;273125;1267;22289;-88
2023/12/04 13:21:10;;;;;;;31.80;14.30;;;;;;;-1.17;84.56;99488.05;273038;1267;22497;-89
2023/12/04 13:27:13;;;;;;;33.50;15.90;;;;;;;-1.23;84.56;99481.61;272976;1266;23248;-89
2023/12/04 13:33:15;;;;;;;33.00;16.60;;;;;;;-1.28;84.53;99481.46;271815;1267;22439;-89
2023/12/04 13:39:23;;;;;;;29.70;14.00;;;;;;;-1.33;84.60;99473.67;273164;1266;22516;-89
2023/12/04 13:45:25;;;;;;;28.80;16.00;;;;;;;-1.41;84.74;99468.66;273220;1266;22407;-89
2023/12/04 13:51:27;;;;;;;32.40;16.70;;;;;;;-1.52;84.97;99463.73;272995;1266;22425;-90
2023/12/04 13:57:33;;;;;;;31.60;16.30;;;;;;;-1.60;85.13;99461.23;272983;1267;22624;-90
2023/12/04 14:03:35;;;;;;;44.10;18.20;;;;;;;-1.64;85.36;99460.75;273102;1266;22309;-89
2023/12/04 14:09:41;;;;;;;34.00;19.10;;;;;;;-1.71;85.35;99451.73;272677;1266;22546;-89
2023/12/04 14:15:43;;;;;;;39.70;20.70;;;;;;;-1.79;85.42;99443.55;270984;1266;24192;-90
2023/12/04 14:21:48;;;;;;;47.00;22.80;;;;;;;-1.90;85.51;99436.26;271558;1266;22564;-89
2023/12/04 14:27:50;;;;;;;54.60;28.70;;;;;;;-2.04;85.74;99426.45;271160;1266;23042;-90
2023/12/04 14:33:53;;;;;;;41.40;22.40;;;;;;;-2.20;86.04;99419.85;272265;1266;22934;-89
2023/12/04 14:39:56;;;;;;;61.10;29.10;;;;;;;-2.39;86.43;99413.79;273212;1266;22445;-90
2023/12/04 14:45:58;;;;;;;64.60;27.70;;;;;;;-2.53;86.65;99409.39;271920;1266;23199;-90
2023/12/04 14:52:01;;;;;;;68.90;28.30;;;;;;;-2.70;86.58;99405.55;271219;1267;24222;-90
2023/12/04 15:17:50;;;;;;;54.20;24.60;;;;;;;-3.26;87.26;99399.95;271620;1267;22715;-90
2023/12/04 15:23:53;;;;;;;74.20;31.00;;;;;;;-3.34;87.55;99401.27;272478;1266;22556;-90
2023/12/04 15:29:55;;;;;;;62.50;28.70;;;;;;;-3.42;87.54;99400.11;272703;1266;22399;-91
2023/12/04 15:35:57;;;;;;;85.00;37.00;;;;;;;-3.54;87.53;99395.08;270944;1267;22707;-90
2023/12/04 15:42:00;;;;;;;78.20;31.60;;;;;;;-3.62;87.96;99385.00;271598;1267;22587;-91
2023/12/04 15:48:02;;;;;;;68.30;30.90;;;;;;;-3.68;87.97;99382.61;273162;1267;22171;-90
2023/12/04 15:54:05;;;;;;;65.90;30.10;;;;;;;-3.80;87.96;99369.96;272964;1266;23187;-90
2023/12/04 16:00:12;;;;;;;67.40;32.20;;;;;;;-3.92;88.26;99368.67;273122;1266;22714;-90
2023/12/04 16:06:15;;;;;;;71.00;30.10;;;;;;;-3.99;88.45;99362.70;272865;1267;22543;-90
2023/12/04 16:12:18;;;;;;;90.40;36.70;;;;;;;-4.02;88.64;99360.29;272009;1266;22975;-93
2023/12/04 16:18:20;;;;;;;57.30;27.30;;;;;;;-4.03;88.85;99351.73;272849;1266;22253;-89
2023/12/04 16:24:23;;;;;;;74.10;31.70;;;;;;;-4.01;89.10;99351.73;272217;1266;22245;-89
2023/12/04 16:30:25;;;;;;;68.80;32.80;;;;;;;-3.96;89.21;99353.11;263928;1266;10001839;-90
2023/12/04 16:36:27;;;;;;;74.60;32.90;;;;;;;-3.94;89.32;99348.34;272993;1251;23100;-90
2023/12/04 16:42:34;;;;;;;68.70;33.70;;;;;;;-3.95;89.24;99343.21;273280;1266;22464;-90
2023/12/04 16:48:37;;;;;;;74.90;34.40;;;;;;;-3.97;89.42;99344.71;272233;1267;22549;-89
2023/12/04 16:54:43;;;;;;;76.00;33.00;;;;;;;-4.00;89.53;99332.67;271295;1266;22201;-89
2023/12/04 17:00:45;;;;;;;68.40;31.80;;;;;;;-4.02;89.68;99317.29;273274;1267;22188;-89
2023/12/04 17:06:47;;;;;;;93.80;30.10;;;;;;;-4.02;89.90;99306.75;273236;1252;22331;-89
2023/12/04 17:12:50;;;;;;;69.40;30.20;;;;;;;-3.98;90.06;99304.55;272435;1267;22284;-89
2023/12/04 17:18:52;;;;;;;79.40;33.70;;;;;;;-3.97;90.12;99295.89;272980;1266;22325;-89
2023/12/04 17:24:55;;;;;;;76.90;33.20;;;;;;;-3.98;90.17;99285.67;273178;1266;22400;-89
2023/12/04 17:30:57;;;;;;;74.20;34.20;;;;;;;-4.00;90.33;99285.05;272841;1266;23456;-90
2023/12/04 17:37:00;;;;;;;83.60;35.10;;;;;;;-4.02;90.32;99289.42;272819;1268;22422;-89
2023/12/04 17:43:02;;;;;;;80.80;33.90;;;;;;;-4.06;90.37;99292.75;273065;1267;23238;-90
2023/12/04 17:49:04;;;;;;;78.80;33.10;;;;;;;-4.05;90.56;99289.87;273066;1267;22288;-90
2023/12/04 17:55:08;;;;;;;76.50;35.10;;;;;;;-4.05;90.70;99284.26;272243;1267;22540;-89
2023/12/04 18:01:11;;;;;;;73.50;32.90;;;;;;;-4.08;90.70;99282.13;271450;1268;22190;-89
2023/12/04 18:07:13;;;;;;;86.40;35.30;;;;;;;-4.12;90.86;99272.36;272786;1267;24197;-90
2023/12/04 18:13:15;;;;;;;83.80;33.70;;;;;;;-4.17;91.00;99264.46;271545;1267;23300;-89
2023/12/04 18:19:18;;;;;;;87.30;38.50;;;;;;;-4.21;91.25;99269.46;270728;1268;22588;-90
2023/12/04 18:25:21;;;;;;;87.60;38.60;;;;;;;-4.23;91.57;99260.48;271636;1267;22392;-89
2023/12/04 18:31:27;;;;;;;94.50;42.50;;;;;;;-4.30;91.53;99239.85;272663;1267;22257;-89
2023/12/04 18:37:35;;;;;;;;;;;;;;;-4.40;91.60;99236.05;272958;1264;22485;-90
2023/12/04 18:43:37;;;;;;;72.50;33.60;;;;;;;-4.45;92.06;99246.97;272759;1268;22453;-89
2023/12/04 18:49:40;;;;;;;87.40;38.00;;;;;;;-4.45;92.53;99266.52;273166;1267;22390;-88
2023/12/04 18:55:44;;;;;;;94.50;39.80;;;;;;;-4.42;92.82;99258.81;272847;1268;22491;-89
2023/12/04 19:01:46;;;;;;;78.70;35.20;;;;;;;-4.46;92.68;99231.52;272974;1258;22384;-89
2023/12/04 19:07:48;;;;;;;80.90;34.90;;;;;;;-4.54;92.68;99222.14;273031;1266;22291;-89
2023/12/04 19:13:51;;;;;;;116.40;50.80;;;;;;;-4.62;92.91;99221.35;272837;1268;22406;-89
2023/12/04 19:19:56;;;;;;;113.70;52.80;;;;;;;-4.59;93.35;99225.23;272990;1266;22415;-89
2023/12/04 19:25:58;;;;;;;103.10;43.20;;;;;;;-4.61;93.13;99221.30;273047;1265;23183;-89
2023/12/04 19:32:00;;;;;;;126.80;53.20;;;;;;;-4.72;93.24;99212.56;273038;1267;22479;-89
2023/12/04 19:38:02;;;;;;;80.00;37.40;;;;;;;-4.82;93.07;99209.23;273083;1267;22616;-88
2023/12/04 19:44:05;;;;;;;79.20;36.70;;;;;;;-4.88;93.41;99205.11;273240;1266;22315;-88
2023/12/04 19:50:11;;;;;;;85.10;38.30;;;;;;;-4.90;93.58;99205.54;273081;1267;22903;-88
2023/12/04 19:56:13;;;;;;;84.60;38.90;;;;;;;-4.92;93.76;99203.04;273169;1267;22381;-89
2023/12/04 20:02:16;;;;;;;86.20;39.30;;;;;;;-4.97;93.77;99193.66;272434;1267;22580;-87
2023/12/04 20:08:19;;;;;;;85.80;38.80;;;;;;;-4.99;94.13;99192.31;272500;1267;22274;-89
2023/12/04 20:14:22;;;;;;;79.60;35.70;;;;;;;-4.98;94.71;99200.98;273093;1266;23451;-88
2023/12/04 20:20:24;;;;;;;103.80;44.50;;;;;;;-4.97;94.94;99201.82;273071;1266;22986;-87
2023/12/04 20:26:27;;;;;;;85.60;40.50;;;;;;;-4.93;95.07;99196.69;273022;1266;22548;-87
2023/12/04 20:32:30;;;;;;;88.40;39.60;;;;;;;-4.96;94.99;99192.79;271009;1266;22451;-87
2023/12/04 20:38:34;;;;;;;97.10;41.10;;;;;;;-5.01;95.04;99189.81;271899;1266;22552;-88
2023/12/04 20:44:44;;;;;;;91.60;39.00;;;;;;;-5.03;95.12;99179.77;271152;1267;25319;-88
2023/12/04 20:50:46;;;;;;;88.90;42.20;;;;;;;-5.06;95.32;99172.26;271228;1266;22577;-87
2023/12/04 20:56:48;;;;;;;93.00;43.40;;;;;;;-5.06;95.62;99165.42;273096;1266;22480;-87
2023/12/04 21:02:53;;;;;;;108.60;46.20;;;;;;;-5.05;95.62;99150.15;273353;1266;22420;-88
2023/12/04 21:08:56;;;;;;;132.20;52.80;;;;;;;-5.12;95.28;99157.73;273354;1266;22428;-89
2023/12/04 21:14:59;;;;;;;117.70;48.40;;;;;;;-5.14;95.76;99155.50;272127;1265;23801;-88
2023/12/04 21:21:06;;;;;;;104.40;46.70;;;;;;;-5.15;95.82;99155.88;271394;1266;22913;-88
2023/12/04 21:27:09;;;;;;;103.50;43.40;;;;;;;-5.22;95.75;99138.06;272766;1264;22557;-87
2023/12/04 21:33:11;;;;;;;101.00;45.40;;;;;;;-5.26;95.89;99128.52;272593;1266;22403;-88
2023/12/04 21:39:13;;;;;;;154.40;65.50;;;;;;;-5.30;95.80;99125.85;273093;1266;22420;-87
2023/12/04 21:45:15;;;;;;;97.30;43.10;;;;;;;-5.35;95.94;99107.13;273229;1266;22885;-87
2023/12/04 21:51:17;;;;;;;102.20;42.20;;;;;;;-5.38;96.14;99116.85;273334;1267;22187;-87
2023/12/04 21:57:20;;;;;;;94.30;37.10;;;;;;;-5.35;96.45;99115.88;273177;1266;22200;-88
2023/12/04 22:03:22;;;;;;;97.70;39.10;;;;;;;-5.35;96.46;99106.17;272169;1259;22421;-86
2023/12/04 22:09:25;;;;;;;107.70;43.40;;;;;;;-5.34;96.54;99107.81;272861;1266;22218;-87
2023/12/04 22:15:27;;;;;;;95.10;42.90;;;;;;;-5.33;96.70;99101.25;273237;1267;22273;-87
2023/12/04 22:21:29;;;;;;;92.20;41.60;;;;;;;-5.35;96.76;99089.30;273053;1266;22552;-86
2023/12/04 22:27:31;;;;;;;93.40;40.30;;;;;;;-5.38;96.76;99072.17;272806;1266;23565;-87
2023/12/04 22:33:34;;;;;;;97.20;40.30;;;;;;;-5.39;97.03;99068.17;273028;1266;22411;-88
2023/12/04 22:39:48;;;;;;;96.40;41.70;;;;;;;-5.40;97.01;99063.05;273088;1266;23604;-88
2023/12/04 22:45:54;;;;;;;102.20;44.60;;;;;;;-5.40;97.19;99059.85;273160;1267;23405;-88
2023/12/04 22:52:14;;;;;;;97.60;44.00;;;;;;;-5.38;97.17;99055.59;272795;1266;22191;-88
2023/12/04 22:58:16;;;;;;;101.70;44.50;;;;;;;-5.37;97.60;99046.30;272105;1266;23135;-88
2023/12/04 23:04:19;;;;;;;98.20;43.00;;;;;;;-5.34;97.87;99043.73;272651;1266;23382;-87
2023/12/04 23:10:21;;;;;;;107.30;46.40;;;;;;;-5.31;97.71;99034.70;273364;1265;22502;-88
2023/12/04 23:16:26;;;;;;;101.40;43.80;;;;;;;-5.32;97.83;99019.34;273285;1266;22203;-88
2023/12/04 23:22:28;;;;;;;105.60;43.20;;;;;;;-5.27;98.20;99019.43;273288;1263;22414;-88
2023/12/04 23:28:30;;;;;;;101.40;44.40;;;;;;;-5.26;98.04;99016.59;273269;1266;23286;-88
2023/12/04 23:34:33;;;;;;;96.30;41.10;;;;;;;-5.30;97.82;99027.13;272763;1266;22394;-88
2023/12/04 23:41:02;;;;;;;102.20;42.20;;;;;;;-5.28;98.28;99024.61;273515;1267;22195;-87
2023/12/04 23:47:05;;;;;;;92.40;42.40;;;;;;;-5.29;98.01;99014.73;273471;1266;23341;-88
2023/12/04 23:53:07;;;;;;;96.60;41.50;;;;;;;-5.30;98.24;99017.19;273328;1266;22687;-88
2023/12/04 23:59:09;;;;;;;97.60;42.50;;;;;;;-5.29;98.37;99002.57;273284;1264;22529;-87
